»·PEaware :: N1718G KIWA-KNYL

N1718G :: KIWA-KNYL

FLIGHT INFORMATION

Flight Status: Arrived
Operator: Privately registered:
United States
More flights under this callsign
Pilot: Spencer M. (27733)
Aircraft: BEECH AIRCRAFT BARON
(BE58)
More flights by this aircraft type
Origin: KIWA Williams Gateway
United States
Destination: KNYL Yuma MCAS/Yuma Intl
United States
More flights between these airports :: More routes between these airports
Route:
File this flight plan on PilotEdge
Remarks:
Altitude:
(Current/Filed)
6,500ft
Speed:
(Current/Filed)
190kts
Departed: 07-Oct-20 07:22 PM
Arrived: 07-Oct-20 08:20 PM
Distance/Time
Traveled:
154nm/0:57
Distance/Time
To Go:
Arrived

Flight Plot

Page will automatically refresh every two minutes.

Flight plan parsing failed; only flown route is shown


Map Options




Map Legend


Flown Route
Filed Route
Departure Airport
Arrival Airport
Navaid (VOR, NDB)
Fix

Horizontal Profiles

Position Reports

Time Latitude Longitude Heading Altitude Ground
Speed
07-Oct-20 19:15 33.303506 -111.660920 46 1382ft 0kts
07-Oct-20 19:16 33.302452 -111.658736 135 1382ft 16kts
07-Oct-20 19:17 33.298600 -111.654197 135 1382ft 19kts
07-Oct-20 19:18 33.298439 -111.654006 135 1382ft 0kts
07-Oct-20 19:19 33.296018 -111.651080 104 1382ft 13kts
07-Oct-20 19:19 33.296765 -111.649820 43 1382ft 0kts
07-Oct-20 19:21 33.296776 -111.649807 43 1382ft 1kts
07-Oct-20 19:22 33.307278 -111.661132 314 1496ft 122kts
07-Oct-20 19:23 33.333601 -111.651206 98 2544ft 162kts
07-Oct-20 19:24 33.305076 -111.609551 133 3569ft 164kts
07-Oct-20 19:24 33.271254 -111.601535 190 4444ft 156kts
07-Oct-20 19:26 33.221708 -111.609877 191 5610ft 153kts
07-Oct-20 19:26 33.185435 -111.616024 191 5997ft 172kts
07-Oct-20 19:27 33.135272 -111.625187 193 5523ft 185kts
07-Oct-20 19:28 33.112924 -111.675699 252 4874ft 175kts
07-Oct-20 19:29 33.101039 -111.731513 260 5122ft 170kts
07-Oct-20 19:30 33.092797 -111.785952 260 5797ft 165kts
07-Oct-20 19:31 33.084952 -111.840657 260 6457ft 169kts
07-Oct-20 19:32 33.076555 -111.899857 259 6506ft 188kts
07-Oct-20 19:33 33.067360 -111.962456 259 6505ft 193kts
07-Oct-20 19:34 33.057102 -112.025343 259 6506ft 193kts
07-Oct-20 19:35 33.047464 -112.088725 259 6507ft 194kts
07-Oct-20 19:36 33.037749 -112.152049 259 6499ft 194kts
07-Oct-20 19:37 33.027904 -112.215614 258 6489ft 196kts
07-Oct-20 19:38 33.017932 -112.279996 258 6477ft 197kts
07-Oct-20 19:39 33.007921 -112.344454 258 6467ft 199kts
07-Oct-20 19:40 32.997809 -112.409345 258 6465ft 199kts
07-Oct-20 19:41 32.987635 -112.474392 258 6463ft 200kts
07-Oct-20 19:42 32.977382 -112.539722 258 6462ft 200kts
07-Oct-20 19:43 32.967097 -112.605036 258 6462ft 200kts
07-Oct-20 19:44 32.956765 -112.670380 257 6462ft 201kts
07-Oct-20 19:45 32.946987 -112.735958 258 6462ft 201kts
07-Oct-20 19:46 32.937378 -112.801448 258 6489ft 200kts
07-Oct-20 19:47 32.927714 -112.866746 258 6490ft 200kts
07-Oct-20 19:48 32.918018 -112.931878 259 6490ft 199kts
07-Oct-20 19:49 32.908331 -112.996705 259 6490ft 199kts
07-Oct-20 19:50 32.898632 -113.061398 259 6490ft 198kts
07-Oct-20 19:51 32.888891 -113.126135 259 6490ft 199kts
07-Oct-20 19:52 32.879123 -113.190814 259 6490ft 199kts
07-Oct-20 19:53 32.869297 -113.255636 259 6490ft 199kts
07-Oct-20 19:54 32.859449 -113.320367 260 6491ft 198kts
07-Oct-20 19:55 32.849607 -113.384810 260 6527ft 198kts
07-Oct-20 19:56 32.839733 -113.449281 259 6526ft 198kts
07-Oct-20 19:57 32.829766 -113.514078 259 6526ft 198kts
07-Oct-20 19:58 32.819813 -113.578570 259 6519ft 199kts
07-Oct-20 19:59 32.809783 -113.643321 259 6509ft 199kts
07-Oct-20 20:00 32.799719 -113.708075 259 6500ft 199kts
07-Oct-20 20:01 32.789652 -113.772617 259 6491ft 199kts
07-Oct-20 20:02 32.779547 -113.837160 259 6491ft 198kts
07-Oct-20 20:03 32.769400 -113.901754 259 6491ft 198kts
07-Oct-20 20:04 32.759251 -113.966141 259 6481ft 199kts
07-Oct-20 20:05 32.749072 -114.031051 259 5745ft 199kts
07-Oct-20 20:06 32.738769 -114.095706 259 5049ft 199kts
07-Oct-20 20:07 32.727755 -114.159813 257 4492ft 193kts
07-Oct-20 20:08 32.716934 -114.219765 258 4092ft 180kts
07-Oct-20 20:09 32.709478 -114.274305 260 3447ft 177kts
07-Oct-20 20:10 32.702394 -114.326637 261 3262ft 148kts
07-Oct-20 20:11 32.695243 -114.375194 256 3217ft 147kts
07-Oct-20 20:12 32.683731 -114.420306 252 2949ft 132kts
07-Oct-20 20:13 32.672708 -114.459317 257 2169ft 107kts
07-Oct-20 20:14 32.669469 -114.491157 266 1553ft 91kts
07-Oct-20 20:15 32.667843 -114.521743 267 1285ft 90kts
07-Oct-20 20:16 32.666898 -114.550821 269 916ft 86kts
07-Oct-20 20:17 32.666279 -114.578690 268 419ft 85kts
07-Oct-20 20:18 32.665969 -114.601492 269 214ft 52kts
07-Oct-20 20:19 32.663238 -114.606677 182 214ft 12kts
07-Oct-20 20:20 32.661848 -114.607405 269 214ft 0kts

Navigation Log

Ident Type
Flight plan parsing failed, navigation log unavailable